sensor_id;sensor_type;location;lat;lon;timestamp;temperature;humidity
75985;DHT22;65033;44.660;37.758;2022-12-18T00:00:29;27.68;48.18
75985;DHT22;65033;44.660;37.758;2022-12-18T00:01:35;27.69;48.13
75985;DHT22;65033;44.660;37.758;2022-12-18T00:02:38;27.70;48.17
75985;DHT22;65033;44.660;37.758;2022-12-18T00:03:41;27.69;48.16
75985;DHT22;65033;44.660;37.758;2022-12-18T00:04:46;27.69;48.09
75985;DHT22;65033;44.660;37.758;2022-12-18T00:05:50;27.70;48.08
75985;DHT22;65033;44.660;37.758;2022-12-18T00:06:54;27.69;48.08
75985;DHT22;65033;44.660;37.758;2022-12-18T00:07:57;27.70;48.07
75985;DHT22;65033;44.660;37.758;2022-12-18T00:09:01;27.69;48.04
75985;DHT22;65033;44.660;37.758;2022-12-18T00:10:05;27.70;48.03
75985;DHT22;65033;44.660;37.758;2022-12-18T00:11:11;27.69;48.05
75985;DHT22;65033;44.660;37.758;2022-12-18T00:12:15;27.68;48.01
75985;DHT22;65033;44.660;37.758;2022-12-18T00:13:23;27.69;47.96
75985;DHT22;65033;44.660;37.758;2022-12-18T00:14:26;27.69;47.98
75985;DHT22;65033;44.660;37.758;2022-12-18T00:15:29;27.68;47.87
75985;DHT22;65033;44.660;37.758;2022-12-18T00:16:32;27.69;47.93
75985;DHT22;65033;44.660;37.758;2022-12-18T00:17:38;27.68;47.94
75985;DHT22;65033;44.660;37.758;2022-12-18T00:18:41;27.69;47.92
75985;DHT22;65033;44.660;37.758;2022-12-18T00:19:46;27.68;47.89
75985;DHT22;65033;44.660;37.758;2022-12-18T00:20:49;27.68;47.86
75985;DHT22;65033;44.660;37.758;2022-12-18T00:21:52;27.68;47.83
75985;DHT22;65033;44.660;37.758;2022-12-18T00:22:56;27.68;47.83
75985;DHT22;65033;44.660;37.758;2022-12-18T00:24:00;27.68;47.84
75985;DHT22;65033;44.660;37.758;2022-12-18T00:25:04;27.67;47.82
75985;DHT22;65033;44.660;37.758;2022-12-18T00:26:10;27.67;47.74
75985;DHT22;65033;44.660;37.758;2022-12-18T00:27:16;27.68;47.74
75985;DHT22;65033;44.660;37.758;2022-12-18T00:28:19;27.67;47.74
75985;DHT22;65033;44.660;37.758;2022-12-18T00:29:22;27.67;47.73
75985;DHT22;65033;44.660;37.758;2022-12-18T00:30:26;27.66;47.75
75985;DHT22;65033;44.660;37.758;2022-12-18T00:31:29;27.67;47.73
75985;DHT22;65033;44.660;37.758;2022-12-18T00:32:34;27.66;47.70
75985;DHT22;65033;44.660;37.758;2022-12-18T00:33:38;27.67;47.69
75985;DHT22;65033;44.660;37.758;2022-12-18T00:34:45;27.68;47.62
75985;DHT22;65033;44.660;37.758;2022-12-18T00:35:50;27.66;47.66
75985;DHT22;65033;44.660;37.758;2022-12-18T00:36:53;27.67;47.65
75985;DHT22;65033;44.660;37.758;2022-12-18T00:37:57;27.67;47.63
75985;DHT22;65033;44.660;37.758;2022-12-18T00:39:03;27.66;47.53
75985;DHT22;65033;44.660;37.758;2022-12-18T00:40:08;27.68;47.57
75985;DHT22;65033;44.660;37.758;2022-12-18T00:41:13;27.66;47.58
75985;DHT22;65033;44.660;37.758;2022-12-18T00:42:38;27.67;47.54
75985;DHT22;65033;44.660;37.758;2022-12-18T00:44:00;27.66;47.55
75985;DHT22;65033;44.660;37.758;2022-12-18T00:45:03;27.66;47.54
75985;DHT22;65033;44.660;37.758;2022-12-18T00:46:10;27.67;47.52
75985;DHT22;65033;44.660;37.758;2022-12-18T00:47:13;27.67;47.53
75985;DHT22;65033;44.660;37.758;2022-12-18T00:48:16;27.66;47.51
75985;DHT22;65033;44.660;37.758;2022-12-18T00:49:20;27.67;47.50
75985;DHT22;65033;44.660;37.758;2022-12-18T00:50:25;27.64;47.48
75985;DHT22;65033;44.660;37.758;2022-12-18T00:51:28;27.65;47.47
75985;DHT22;65033;44.660;37.758;2022-12-18T00:52:31;27.65;47.49
75985;DHT22;65033;44.660;37.758;2022-12-18T00:53:35;27.65;47.42
75985;DHT22;65033;44.660;37.758;2022-12-18T00:54:38;27.65;47.41
75985;DHT22;65033;44.660;37.758;2022-12-18T00:55:41;27.65;47.39
75985;DHT22;65033;44.660;37.758;2022-12-18T00:56:45;27.65;47.42
75985;DHT22;65033;44.660;37.758;2022-12-18T00:57:52;27.64;47.42
75985;DHT22;65033;44.660;37.758;2022-12-18T00:58:55;27.64;47.46
75985;DHT22;65033;44.660;37.758;2022-12-18T00:59:58;27.65;47.34
75985;DHT22;65033;44.660;37.758;2022-12-18T01:01:03;27.64;47.34
75985;DHT22;65033;44.660;37.758;2022-12-18T01:02:10;27.65;47.36
75985;DHT22;65033;44.660;37.758;2022-12-18T01:03:14;27.65;47.33
75985;DHT22;65033;44.660;37.758;2022-12-18T01:04:18;27.66;47.31
75985;DHT22;65033;44.660;37.758;2022-12-18T01:05:23;27.65;47.28
75985;DHT22;65033;44.660;37.758;2022-12-18T01:06:27;27.66;47.27
75985;DHT22;65033;44.660;37.758;2022-12-18T01:07:31;27.65;47.27
75985;DHT22;65033;44.660;37.758;2022-12-18T01:08:34;27.65;47.24
75985;DHT22;65033;44.660;37.758;2022-12-18T01:09:38;27.64;47.28
75985;DHT22;65033;44.660;37.758;2022-12-18T01:10:41;27.65;47.20
75985;DHT22;65033;44.660;37.758;2022-12-18T01:11:45;27.66;47.21
75985;DHT22;65033;44.660;37.758;2022-12-18T01:12:48;27.65;47.16
75985;DHT22;65033;44.660;37.758;2022-12-18T01:13:53;27.64;47.18
75985;DHT22;65033;44.660;37.758;2022-12-18T01:14:57;27.64;47.15
75985;DHT22;65033;44.660;37.758;2022-12-18T01:16:00;27.65;47.09
75985;DHT22;65033;44.660;37.758;2022-12-18T01:17:04;27.64;47.09
75985;DHT22;65033;44.660;37.758;2022-12-18T01:18:08;27.64;47.08
75985;DHT22;65033;44.660;37.758;2022-12-18T01:19:11;27.64;47.09
75985;DHT22;65033;44.660;37.758;2022-12-18T01:20:14;27.64;47.07
75985;DHT22;65033;44.660;37.758;2022-12-18T01:21:19;27.63;47.11
75985;DHT22;65033;44.660;37.758;2022-12-18T01:22:22;27.65;47.02
75985;DHT22;65033;44.660;37.758;2022-12-18T01:23:26;27.64;47.07
75985;DHT22;65033;44.660;37.758;2022-12-18T01:24:29;27.64;47.07
75985;DHT22;65033;44.660;37.758;2022-12-18T01:25:32;27.61;46.99
75985;DHT22;65033;44.660;37.758;2022-12-18T01:26:36;27.64;47.02
75985;DHT22;65033;44.660;37.758;2022-12-18T01:27:39;27.64;47.03
75985;DHT22;65033;44.660;37.758;2022-12-18T01:28:43;27.64;47.02
75985;DHT22;65033;44.660;37.758;2022-12-18T01:29:49;27.63;46.93
75985;DHT22;65033;44.660;37.758;2022-12-18T01:30:54;27.63;46.93
75985;DHT22;65033;44.660;37.758;2022-12-18T01:31:57;27.64;46.90
75985;DHT22;65033;44.660;37.758;2022-12-18T01:33:01;27.64;46.93
75985;DHT22;65033;44.660;37.758;2022-12-18T01:34:04;27.64;46.86
75985;DHT22;65033;44.660;37.758;2022-12-18T01:35:09;27.63;46.87
75985;DHT22;65033;44.660;37.758;2022-12-18T01:36:19;27.63;46.80
75985;DHT22;65033;44.660;37.758;2022-12-18T01:37:23;27.61;46.86
75985;DHT22;65033;44.660;37.758;2022-12-18T01:38:28;27.63;46.80
75985;DHT22;65033;44.660;37.758;2022-12-18T01:39:32;27.63;46.81
75985;DHT22;65033;44.660;37.758;2022-12-18T01:40:36;27.63;46.78
75985;DHT22;65033;44.660;37.758;2022-12-18T01:41:39;27.64;46.80
75985;DHT22;65033;44.660;37.758;2022-12-18T01:43:01;27.63;46.78
75985;DHT22;65033;44.660;37.758;2022-12-18T01:45:40;27.61;46.76
75985;DHT22;65033;44.660;37.758;2022-12-18T01:46:43;27.61;46.72
75985;DHT22;65033;44.660;37.758;2022-12-18T01:47:48;27.61;46.73
75985;DHT22;65033;44.660;37.758;2022-12-18T01:48:56;27.61;46.71
75985;DHT22;65033;44.660;37.758;2022-12-18T01:50:02;27.61;46.66
75985;DHT22;65033;44.660;37.758;2022-12-18T01:51:08;27.60;46.65
75985;DHT22;65033;44.660;37.758;2022-12-18T01:52:14;27.61;46.72
75985;DHT22;65033;44.660;37.758;2022-12-18T01:53:20;27.60;46.64
75985;DHT22;65033;44.660;37.758;2022-12-18T01:54:24;27.60;46.67
75985;DHT22;65033;44.660;37.758;2022-12-18T01:55:35;27.59;46.62
75985;DHT22;65033;44.660;37.758;2022-12-18T01:56:40;27.60;46.64
75985;DHT22;65033;44.660;37.758;2022-12-18T01:57:43;27.60;46.61
75985;DHT22;65033;44.660;37.758;2022-12-18T01:58:52;27.59;46.57
75985;DHT22;65033;44.660;37.758;2022-12-18T02:00:01;27.60;46.64
75985;DHT22;65033;44.660;37.758;2022-12-18T02:01:14;27.60;46.58
75985;DHT22;65033;44.660;37.758;2022-12-18T02:02:19;27.60;46.57
75985;DHT22;65033;44.660;37.758;2022-12-18T02:03:22;27.60;46.55
75985;DHT22;65033;44.660;37.758;2022-12-18T02:04:27;27.58;46.55
75985;DHT22;65033;44.660;37.758;2022-12-18T02:05:40;27.60;46.49
75985;DHT22;65033;44.660;37.758;2022-12-18T02:06:45;27.59;46.47
75985;DHT22;65033;44.660;37.758;2022-12-18T02:07:59;27.60;46.52
75985;DHT22;65033;44.660;37.758;2022-12-18T02:09:10;27.58;46.48
75985;DHT22;65033;44.660;37.758;2022-12-18T02:10:17;27.59;46.51
75985;DHT22;65033;44.660;37.758;2022-12-18T02:11:31;27.59;46.44
75985;DHT22;65033;44.660;37.758;2022-12-18T02:12:39;27.59;46.48
75985;DHT22;65033;44.660;37.758;2022-12-18T02:13:51;27.58;46.50
75985;DHT22;65033;44.660;37.758;2022-12-18T02:14:59;27.58;46.45
75985;DHT22;65033;44.660;37.758;2022-12-18T02:16:08;27.58;46.43
75985;DHT22;65033;44.660;37.758;2022-12-18T02:17:17;27.58;46.41
75985;DHT22;65033;44.660;37.758;2022-12-18T02:18:25;27.58;46.43
75985;DHT22;65033;44.660;37.758;2022-12-18T02:19:59;27.59;46.40
75985;DHT22;65033;44.660;37.758;2022-12-18T02:21:11;27.58;46.38
75985;DHT22;65033;44.660;37.758;2022-12-18T02:22:29;27.57;46.38
75985;DHT22;65033;44.660;37.758;2022-12-18T02:23:45;27.57;46.40
75985;DHT22;65033;44.660;37.758;2022-12-18T02:24:59;27.57;46.38
75985;DHT22;65033;44.660;37.758;2022-12-18T02:26:11;27.59;46.36
75985;DHT22;65033;44.660;37.758;2022-12-18T02:27:16;27.57;46.34
75985;DHT22;65033;44.660;37.758;2022-12-18T02:28:23;27.59;46.28
75985;DHT22;65033;44.660;37.758;2022-12-18T02:29:33;27.57;46.32
75985;DHT22;65033;44.660;37.758;2022-12-18T02:30:38;27.58;46.33
75985;DHT22;65033;44.660;37.758;2022-12-18T02:31:45;27.57;46.32
75985;DHT22;65033;44.660;37.758;2022-12-18T02:32:52;27.58;46.34
75985;DHT22;65033;44.660;37.758;2022-12-18T02:34:00;27.58;46.31
75985;DHT22;65033;44.660;37.758;2022-12-18T02:35:12;27.57;46.27
75985;DHT22;65033;44.660;37.758;2022-12-18T02:36:17;27.58;46.28
75985;DHT22;65033;44.660;37.758;2022-12-18T02:37:23;27.58;46.30
75985;DHT22;65033;44.660;37.758;2022-12-18T02:38:29;27.57;46.27
75985;DHT22;65033;44.660;37.758;2022-12-18T02:39:42;27.59;46.22
75985;DHT22;65033;44.660;37.758;2022-12-18T02:40:49;27.58;46.23
75985;DHT22;65033;44.660;37.758;2022-12-18T02:41:55;27.58;46.25
75985;DHT22;65033;44.660;37.758;2022-12-18T02:43:03;27.58;46.20
75985;DHT22;65033;44.660;37.758;2022-12-18T02:44:11;27.58;46.24
75985;DHT22;65033;44.660;37.758;2022-12-18T02:45:16;27.58;46.19
75985;DHT22;65033;44.660;37.758;2022-12-18T02:46:32;27.57;46.22
75985;DHT22;65033;44.660;37.758;2022-12-18T02:47:42;27.59;46.25
75985;DHT22;65033;44.660;37.758;2022-12-18T02:48:48;27.57;46.25
75985;DHT22;65033;44.660;37.758;2022-12-18T02:49:59;27.58;46.22
75985;DHT22;65033;44.660;37.758;2022-12-18T02:51:13;27.57;46.17
75985;DHT22;65033;44.660;37.758;2022-12-18T02:52:29;27.58;46.19
75985;DHT22;65033;44.660;37.758;2022-12-18T02:53:40;27.59;46.13
75985;DHT22;65033;44.660;37.758;2022-12-18T02:54:55;27.57;46.18
75985;DHT22;65033;44.660;37.758;2022-12-18T02:56:05;27.57;46.14
75985;DHT22;65033;44.660;37.758;2022-12-18T02:57:19;27.58;46.15
75985;DHT22;65033;44.660;37.758;2022-12-18T02:58:29;27.57;46.12
75985;DHT22;65033;44.660;37.758;2022-12-18T02:59:42;27.57;46.09
75985;DHT22;65033;44.660;37.758;2022-12-18T03:00:56;27.57;46.13
75985;DHT22;65033;44.660;37.758;2022-12-18T03:02:10;27.57;46.08
75985;DHT22;65033;44.660;37.758;2022-12-18T03:03:22;27.57;46.09
75985;DHT22;65033;44.660;37.758;2022-12-18T03:04:32;27.58;46.06
75985;DHT22;65033;44.660;37.758;2022-12-18T03:05:44;27.58;46.05
75985;DHT22;65033;44.660;37.758;2022-12-18T03:06:55;27.56;46.05
75985;DHT22;65033;44.660;37.758;2022-12-18T03:08:05;27.57;46.06
75985;DHT22;65033;44.660;37.758;2022-12-18T03:09:15;27.57;46.02
75985;DHT22;65033;44.660;37.758;2022-12-18T03:10:25;27.56;46.02
75985;DHT22;65033;44.660;37.758;2022-12-18T03:11:33;27.56;45.96
75985;DHT22;65033;44.660;37.758;2022-12-18T03:13:00;27.56;45.99
75985;DHT22;65033;44.660;37.758;2022-12-18T03:14:07;27.56;45.97
75985;DHT22;65033;44.660;37.758;2022-12-18T03:15:13;27.57;45.99
75985;DHT22;65033;44.660;37.758;2022-12-18T03:16:25;27.56;45.93
75985;DHT22;65033;44.660;37.758;2022-12-18T03:17:32;27.57;45.97
75985;DHT22;65033;44.660;37.758;2022-12-18T03:18:39;27.58;45.93
75985;DHT22;65033;44.660;37.758;2022-12-18T03:19:46;27.57;45.92
75985;DHT22;65033;44.660;37.758;2022-12-18T03:20:51;27.57;45.91
75985;DHT22;65033;44.660;37.758;2022-12-18T03:21:57;27.56;45.90
75985;DHT22;65033;44.660;37.758;2022-12-18T03:23:09;27.57;45.88
75985;DHT22;65033;44.660;37.758;2022-12-18T03:24:15;27.55;45.91
75985;DHT22;65033;44.660;37.758;2022-12-18T03:25:19;27.57;45.86
75985;DHT22;65033;44.660;37.758;2022-12-18T03:26:28;27.57;45.86
75985;DHT22;65033;44.660;37.758;2022-12-18T03:27:38;27.56;45.83
75985;DHT22;65033;44.660;37.758;2022-12-18T03:28:51;27.56;45.86
75985;DHT22;65033;44.660;37.758;2022-12-18T03:30:01;27.56;45.82
75985;DHT22;65033;44.660;37.758;2022-12-18T03:31:14;27.57;45.82
75985;DHT22;65033;44.660;37.758;2022-12-18T03:32:23;27.57;45.75
75985;DHT22;65033;44.660;37.758;2022-12-18T03:33:28;27.56;45.77
75985;DHT22;65033;44.660;37.758;2022-12-18T03:34:36;27.57;45.80
75985;DHT22;65033;44.660;37.758;2022-12-18T03:35:43;27.55;45.77
75985;DHT22;65033;44.660;37.758;2022-12-18T03:36:47;27.55;45.72
75985;DHT22;65033;44.660;37.758;2022-12-18T03:37:51;27.56;45.76
75985;DHT22;65033;44.660;37.758;2022-12-18T03:38:58;27.56;45.73
75985;DHT22;65033;44.660;37.758;2022-12-18T03:40:03;27.55;45.73
75985;DHT22;65033;44.660;37.758;2022-12-18T03:41:16;27.55;45.73
75985;DHT22;65033;44.660;37.758;2022-12-18T03:42:47;27.55;45.70
75985;DHT22;65033;44.660;37.758;2022-12-18T03:43:57;27.56;45.66
75985;DHT22;65033;44.660;37.758;2022-12-18T03:45:09;27.56;45.68
75985;DHT22;65033;44.660;37.758;2022-12-18T03:46:20;27.55;45.66
75985;DHT22;65033;44.660;37.758;2022-12-18T03:47:28;27.55;45.64
75985;DHT22;65033;44.660;37.758;2022-12-18T03:48:41;27.55;45.64
75985;DHT22;65033;44.660;37.758;2022-12-18T03:49:50;27.56;45.59
75985;DHT22;65033;44.660;37.758;2022-12-18T03:50:59;27.55;45.62
75985;DHT22;65033;44.660;37.758;2022-12-18T03:52:08;27.56;45.57
75985;DHT22;65033;44.660;37.758;2022-12-18T03:53:22;27.56;45.54
75985;DHT22;65033;44.660;37.758;2022-12-18T03:54:28;27.56;45.58
75985;DHT22;65033;44.660;37.758;2022-12-18T03:55:42;27.56;45.57
75985;DHT22;65033;44.660;37.758;2022-12-18T03:56:50;27.56;45.53
75985;DHT22;65033;44.660;37.758;2022-12-18T03:57:57;27.55;45.51
75985;DHT22;65033;44.660;37.758;2022-12-18T03:59:08;27.56;45.49
75985;DHT22;65033;44.660;37.758;2022-12-18T04:00:16;27.57;45.48
75985;DHT22;65033;44.660;37.758;2022-12-18T04:01:38;27.57;45.46
75985;DHT22;65033;44.660;37.758;2022-12-18T04:02:47;27.56;45.45
75985;DHT22;65033;44.660;37.758;2022-12-18T04:04:00;27.57;45.42
75985;DHT22;65033;44.660;37.758;2022-12-18T04:05:08;27.57;45.42
75985;DHT22;65033;44.660;37.758;2022-12-18T04:06:15;27.55;45.43
75985;DHT22;65033;44.660;37.758;2022-12-18T04:07:20;27.56;45.42
75985;DHT22;65033;44.660;37.758;2022-12-18T04:08:25;27.56;45.40
75985;DHT22;65033;44.660;37.758;2022-12-18T04:09:38;27.56;45.41
75985;DHT22;65033;44.660;37.758;2022-12-18T04:10:43;27.56;45.38
75985;DHT22;65033;44.660;37.758;2022-12-18T04:11:47;27.57;45.36
75985;DHT22;65033;44.660;37.758;2022-12-18T04:12:55;27.55;45.35
75985;DHT22;65033;44.660;37.758;2022-12-18T04:13:59;27.56;45.35
75985;DHT22;65033;44.660;37.758;2022-12-18T04:15:08;27.55;45.37
75985;DHT22;65033;44.660;37.758;2022-12-18T04:16:12;27.56;45.34
75985;DHT22;65033;44.660;37.758;2022-12-18T04:17:17;27.57;45.31
75985;DHT22;65033;44.660;37.758;2022-12-18T04:18:21;27.56;45.32
75985;DHT22;65033;44.660;37.758;2022-12-18T04:19:25;27.57;45.32
75985;DHT22;65033;44.660;37.758;2022-12-18T04:20:28;27.57;45.30
75985;DHT22;65033;44.660;37.758;2022-12-18T04:21:32;27.57;45.28
75985;DHT22;65033;44.660;37.758;2022-12-18T04:22:35;27.56;45.25
75985;DHT22;65033;44.660;37.758;2022-12-18T04:23:38;27.55;45.27
75985;DHT22;65033;44.660;37.758;2022-12-18T04:24:42;27.56;45.27
75985;DHT22;65033;44.660;37.758;2022-12-18T04:25:56;27.56;45.26
75985;DHT22;65033;44.660;37.758;2022-12-18T04:27:32;27.54;45.26
75985;DHT22;65033;44.660;37.758;2022-12-18T04:28:37;27.54;45.27
75985;DHT22;65033;44.660;37.758;2022-12-18T04:29:40;27.55;45.27
75985;DHT22;65033;44.660;37.758;2022-12-18T04:30:45;27.55;45.25
75985;DHT22;65033;44.660;37.758;2022-12-18T04:31:52;27.56;45.25
75985;DHT22;65033;44.660;37.758;2022-12-18T04:32:55;27.56;45.22
75985;DHT22;65033;44.660;37.758;2022-12-18T04:33:59;27.55;45.21
75985;DHT22;65033;44.660;37.758;2022-12-18T04:35:03;27.55;45.19
75985;DHT22;65033;44.660;37.758;2022-12-18T04:36:09;27.57;45.18
75985;DHT22;65033;44.660;37.758;2022-12-18T04:37:15;27.56;45.16
75985;DHT22;65033;44.660;37.758;2022-12-18T04:38:19;27.55;45.15
75985;DHT22;65033;44.660;37.758;2022-12-18T04:39:28;27.55;45.14
75985;DHT22;65033;44.660;37.758;2022-12-18T04:40:35;27.56;45.12
75985;DHT22;65033;44.660;37.758;2022-12-18T04:41:43;27.56;45.12
75985;DHT22;65033;44.660;37.758;2022-12-18T04:42:48;27.55;45.15
75985;DHT22;65033;44.660;37.758;2022-12-18T04:43:51;27.55;45.09
75985;DHT22;65033;44.660;37.758;2022-12-18T04:44:54;27.55;45.10
75985;DHT22;65033;44.660;37.758;2022-12-18T04:46:03;27.55;45.11
75985;DHT22;65033;44.660;37.758;2022-12-18T04:47:07;27.54;45.14
75985;DHT22;65033;44.660;37.758;2022-12-18T04:48:10;27.55;45.09
75985;DHT22;65033;44.660;37.758;2022-12-18T04:49:13;27.54;45.08
75985;DHT22;65033;44.660;37.758;2022-12-18T04:50:17;27.55;45.09
75985;DHT22;65033;44.660;37.758;2022-12-18T04:51:20;27.54;45.11
75985;DHT22;65033;44.660;37.758;2022-12-18T04:52:27;27.56;45.08
75985;DHT22;65033;44.660;37.758;2022-12-18T04:53:33;27.54;45.09
75985;DHT22;65033;44.660;37.758;2022-12-18T04:54:37;27.55;45.10
75985;DHT22;65033;44.660;37.758;2022-12-18T04:55:40;27.54;45.10
75985;DHT22;65033;44.660;37.758;2022-12-18T04:56:43;27.55;45.06
75985;DHT22;65033;44.660;37.758;2022-12-18T04:57:46;27.54;45.07
75985;DHT22;65033;44.660;37.758;2022-12-18T04:58:50;27.55;45.05
75985;DHT22;65033;44.660;37.758;2022-12-18T04:59:53;27.54;45.06
75985;DHT22;65033;44.660;37.758;2022-12-18T05:00:56;27.56;45.03
75985;DHT22;65033;44.660;37.758;2022-12-18T05:02:02;27.54;45.03
75985;DHT22;65033;44.660;37.758;2022-12-18T05:03:05;27.56;44.99
75985;DHT22;65033;44.660;37.758;2022-12-18T05:04:08;27.55;45.01
75985;DHT22;65033;44.660;37.758;2022-12-18T05:05:12;27.56;44.99
75985;DHT22;65033;44.660;37.758;2022-12-18T05:06:15;27.55;44.99
75985;DHT22;65033;44.660;37.758;2022-12-18T05:07:18;27.56;45.02
75985;DHT22;65033;44.660;37.758;2022-12-18T05:08:22;27.56;45.00
75985;DHT22;65033;44.660;37.758;2022-12-18T05:09:25;27.55;44.99
75985;DHT22;65033;44.660;37.758;2022-12-18T05:10:28;27.56;44.95
75985;DHT22;65033;44.660;37.758;2022-12-18T05:11:33;27.56;44.93
75985;DHT22;65033;44.660;37.758;2022-12-18T05:12:37;27.57;44.95
75985;DHT22;65033;44.660;37.758;2022-12-18T05:14:00;27.56;44.96
75985;DHT22;65033;44.660;37.758;2022-12-18T05:15:04;27.56;44.92
75985;DHT22;65033;44.660;37.758;2022-12-18T05:16:07;27.55;44.95
75985;DHT22;65033;44.660;37.758;2022-12-18T05:17:12;27.56;44.90
75985;DHT22;65033;44.660;37.758;2022-12-18T05:18:15;27.55;44.90
75985;DHT22;65033;44.660;37.758;2022-12-18T05:19:19;27.56;44.93
75985;DHT22;65033;44.660;37.758;2022-12-18T05:20:22;27.55;44.93
75985;DHT22;65033;44.660;37.758;2022-12-18T05:21:25;27.56;44.90
75985;DHT22;65033;44.660;37.758;2022-12-18T05:22:29;27.56;44.89
75985;DHT22;65033;44.660;37.758;2022-12-18T05:23:32;27.55;44.90
75985;DHT22;65033;44.660;37.758;2022-12-18T05:24:36;27.56;44.89
75985;DHT22;65033;44.660;37.758;2022-12-18T05:25:39;27.56;44.89
75985;DHT22;65033;44.660;37.758;2022-12-18T05:26:42;27.57;44.83
75985;DHT22;65033;44.660;37.758;2022-12-18T05:27:46;27.55;44.83
75985;DHT22;65033;44.660;37.758;2022-12-18T05:28:49;27.58;44.83
75985;DHT22;65033;44.660;37.758;2022-12-18T05:29:53;27.58;44.82
75985;DHT22;65033;44.660;37.758;2022-12-18T05:30:58;27.57;44.78
75985;DHT22;65033;44.660;37.758;2022-12-18T05:32:01;27.58;44.78
75985;DHT22;65033;44.660;37.758;2022-12-18T05:33:06;27.59;44.74
75985;DHT22;65033;44.660;37.758;2022-12-18T05:34:09;27.59;44.74
75985;DHT22;65033;44.660;37.758;2022-12-18T05:35:12;27.58;44.73
75985;DHT22;65033;44.660;37.758;2022-12-18T05:36:16;27.59;44.72
75985;DHT22;65033;44.660;37.758;2022-12-18T05:37:19;27.59;44.69
75985;DHT22;65033;44.660;37.758;2022-12-18T05:38:24;27.59;44.68
75985;DHT22;65033;44.660;37.758;2022-12-18T05:39:28;27.60;44.68
75985;DHT22;65033;44.660;37.758;2022-12-18T05:40:31;27.60;44.65
75985;DHT22;65033;44.660;37.758;2022-12-18T05:41:35;27.61;44.63
75985;DHT22;65033;44.660;37.758;2022-12-18T05:42:38;27.63;44.59
75985;DHT22;65033;44.660;37.758;2022-12-18T05:43:41;27.63;44.54
75985;DHT22;65033;44.660;37.758;2022-12-18T05:44:45;27.64;44.42
75985;DHT22;65033;44.660;37.758;2022-12-18T05:45:48;27.65;44.32
75985;DHT22;65033;44.660;37.758;2022-12-18T05:46:52;27.66;44.36
75985;DHT22;65033;44.660;37.758;2022-12-18T05:47:55;27.66;44.39
75985;DHT22;65033;44.660;37.758;2022-12-18T05:49:00;27.67;44.38
75985;DHT22;65033;44.660;37.758;2022-12-18T05:50:05;27.66;44.42
75985;DHT22;65033;44.660;37.758;2022-12-18T05:51:11;27.66;44.42
75985;DHT22;65033;44.660;37.758;2022-12-18T05:52:15;27.67;44.40
75985;DHT22;65033;44.660;37.758;2022-12-18T05:53:19;27.67;44.37
75985;DHT22;65033;44.660;37.758;2022-12-18T05:54:23;27.68;44.34
75985;DHT22;65033;44.660;37.758;2022-12-18T05:55:26;27.68;44.32
75985;DHT22;65033;44.660;37.758;2022-12-18T05:56:29;27.69;44.31
75985;DHT22;65033;44.660;37.758;2022-12-18T05:57:32;27.69;44.30
75985;DHT22;65033;44.660;37.758;2022-12-18T05:58:36;27.69;44.32
75985;DHT22;65033;44.660;37.758;2022-12-18T05:59:39;27.69;44.34
75985;DHT22;65033;44.660;37.758;2022-12-18T06:00:44;27.69;44.33
75985;DHT22;65033;44.660;37.758;2022-12-18T06:01:49;27.69;44.34
75985;DHT22;65033;44.660;37.758;2022-12-18T06:02:52;27.71;44.32
75985;DHT22;65033;44.660;37.758;2022-12-18T06:03:55;27.70;44.39
75985;DHT22;65033;44.660;37.758;2022-12-18T06:05:00;27.71;44.43
75985;DHT22;65033;44.660;37.758;2022-12-18T06:06:04;27.72;44.42
75985;DHT22;65033;44.660;37.758;2022-12-18T06:07:07;27.71;44.44
75985;DHT22;65033;44.660;37.758;2022-12-18T06:08:11;27.71;44.46
75985;DHT22;65033;44.660;37.758;2022-12-18T06:09:14;27.73;44.46
75985;DHT22;65033;44.660;37.758;2022-12-18T06:10:18;27.71;44.45
75985;DHT22;65033;44.660;37.758;2022-12-18T06:11:23;27.73;44.45
75985;DHT22;65033;44.660;37.758;2022-12-18T06:12:26;27.75;44.42
75985;DHT22;65033;44.660;37.758;2022-12-18T06:13:29;27.75;44.40
75985;DHT22;65033;44.660;37.758;2022-12-18T06:14:32;27.76;44.37
75985;DHT22;65033;44.660;37.758;2022-12-18T06:15:36;27.75;44.35
75985;DHT22;65033;44.660;37.758;2022-12-18T06:16:40;27.78;44.31
75985;DHT22;65033;44.660;37.758;2022-12-18T06:17:43;27.79;44.25
75985;DHT22;65033;44.660;37.758;2022-12-18T06:18:46;27.82;44.22
75985;DHT22;65033;44.660;37.758;2022-12-18T06:19:50;27.82;44.19
75985;DHT22;65033;44.660;37.758;2022-12-18T06:20:58;27.83;44.13
75985;DHT22;65033;44.660;37.758;2022-12-18T06:22:02;27.85;44.13
75985;DHT22;65033;44.660;37.758;2022-12-18T06:23:05;27.85;44.09
75985;DHT22;65033;44.660;37.758;2022-12-18T06:24:08;27.86;44.08
75985;DHT22;65033;44.660;37.758;2022-12-18T06:25:12;27.87;44.05
75985;DHT22;65033;44.660;37.758;2022-12-18T06:26:15;27.88;44.01
75985;DHT22;65033;44.660;37.758;2022-12-18T06:27:18;27.91;43.96
75985;DHT22;65033;44.660;37.758;2022-12-18T06:28:22;27.91;43.90
75985;DHT22;65033;44.660;37.758;2022-12-18T06:29:25;27.94;43.87
75985;DHT22;65033;44.660;37.758;2022-12-18T06:30:28;27.95;43.84
75985;DHT22;65033;44.660;37.758;2022-12-18T06:31:32;27.97;43.82
75985;DHT22;65033;44.660;37.758;2022-12-18T06:32:35;27.97;43.80
75985;DHT22;65033;44.660;37.758;2022-12-18T06:33:39;27.97;43.80
75985;DHT22;65033;44.660;37.758;2022-12-18T06:34:42;27.98;43.80
75985;DHT22;65033;44.660;37.758;2022-12-18T06:35:45;28.00;43.78
75985;DHT22;65033;44.660;37.758;2022-12-18T06:36:50;27.99;43.74
75985;DHT22;65033;44.660;37.758;2022-12-18T06:37:53;27.98;43.77
75985;DHT22;65033;44.660;37.758;2022-12-18T06:38:57;27.98;43.80
75985;DHT22;65033;44.660;37.758;2022-12-18T06:40:00;27.97;43.85
75985;DHT22;65033;44.660;37.758;2022-12-18T06:41:06;27.97;43.85
75985;DHT22;65033;44.660;37.758;2022-12-18T06:42:09;27.98;43.87
75985;DHT22;65033;44.660;37.758;2022-12-18T06:43:13;27.97;43.93
75985;DHT22;65033;44.660;37.758;2022-12-18T06:44:17;27.98;43.94
75985;DHT22;65033;44.660;37.758;2022-12-18T06:45:20;27.96;43.93
75985;DHT22;65033;44.660;37.758;2022-12-18T06:46:23;27.96;43.92
75985;DHT22;65033;44.660;37.758;2022-12-18T06:47:27;27.95;43.93
75985;DHT22;65033;44.660;37.758;2022-12-18T06:48:30;27.95;43.97
75985;DHT22;65033;44.660;37.758;2022-12-18T06:49:34;27.94;44.00
75985;DHT22;65033;44.660;37.758;2022-12-18T06:50:41;27.95;44.08
75985;DHT22;65033;44.660;37.758;2022-12-18T06:51:44;27.94;44.10
75985;DHT22;65033;44.660;37.758;2022-12-18T06:52:49;27.94;44.12